Clearfield, Iowa
Current Conditions -  °F | °C
As of 9:15 PM on Monday 26 Jan 2015 (Local Time) from KCSQ Reporting Station
Clear Clear  
Wind Chill: 30°   Ceiling: Unl
Heat Index: 37°   Visibility: 10mi
Dew Point: 34°   Wind: 12mph
Humidity: 87%   Direction: 310°NW
Pressure: 29.98"   Gusts: NA
Location:  40.8°N, 94.48°W
Report Text: KCSQ 270315Z AUTO 31010KT 10SM CLR 03/01 A2998 RMK AO2
Loading
Personal Weather Stations






























Interactive Weather Map New forecast layout! Learn more

10-Day Weather Forecast

Advertisements
Track Severe Weather on mobile